createdAt,value
2023-01-29T00:00:26.255Z,103010.75
2023-01-29T00:02:53.964Z,103011.59
2023-01-29T00:05:28.027Z,102999.13
2023-01-29T00:07:56.202Z,103015.22
2023-01-29T00:10:24.559Z,103018.03
2023-01-29T00:12:52.691Z,103011.28
2023-01-29T00:15:20.896Z,103010.16
2023-01-29T00:17:50.017Z,103009.19
2023-01-29T00:20:18.768Z,103013.81
2023-01-29T00:22:46.698Z,102999.63
2023-01-29T00:25:14.408Z,102998.78
2023-01-29T00:27:42.137Z,102994.44
2023-01-29T00:30:12.832Z,102992.75
2023-01-29T00:32:40.747Z,102999.91
2023-01-29T00:35:10.802Z,102993.59
2023-01-29T00:37:38.651Z,102993.72
2023-01-29T00:40:07.477Z,102988.53
2023-01-29T00:42:52.841Z,102996.38
2023-01-29T00:45:20.511Z,102986.72
2023-01-29T00:47:48.303Z,102986.00
2023-01-29T00:50:17.783Z,102978.84
2023-01-29T00:52:45.900Z,102978.84
2023-01-29T00:55:13.889Z,102963.97
2023-01-29T00:57:41.624Z,102962.16
2023-01-29T01:00:14.666Z,102961.31
2023-01-29T01:03:00.240Z,102950.66
2023-01-29T01:05:29.523Z,102952.34
2023-01-29T01:07:59.238Z,102952.47
2023-01-29T01:10:29.502Z,102947.16
2023-01-29T01:12:59.750Z,102943.66
2023-01-29T01:15:29.371Z,102955.16
2023-01-29T01:17:58.252Z,102957.81
2023-01-29T01:20:26.620Z,102956.25
2023-01-29T01:22:56.323Z,102955.41
2023-01-29T01:25:25.138Z,102942.63
2023-01-29T01:27:53.668Z,102952.03
2023-01-29T01:30:21.839Z,102963.53
2023-01-29T01:32:49.986Z,102954.69
2023-01-29T01:35:18.067Z,102952.03
2023-01-29T01:37:45.790Z,102958.34
2023-01-29T01:40:21.254Z,102963.66
2023-01-29T01:42:50.176Z,102953.97
2023-01-29T01:45:25.766Z,102960.16
2023-01-29T01:47:57.519Z,102975.41
2023-01-29T01:50:29.764Z,102971.91
2023-01-29T01:53:03.555Z,102972.88
2023-01-29T01:55:35.549Z,102966.72
2023-01-29T01:58:10.377Z,102964.91
2023-01-29T02:00:39.632Z,102964.91
2023-01-29T02:03:27.341Z,102966.84
2023-01-29T02:06:14.026Z,102973.00
2023-01-29T02:09:06.079Z,102964.19
2023-01-29T02:11:35.131Z,102973.97
2023-01-29T02:14:03.598Z,102972.28
2023-01-29T02:16:31.509Z,102965.41
2023-01-29T02:18:59.228Z,102971.59
2023-01-29T02:21:52.046Z,102972.56
2023-01-29T02:25:09.941Z,102973.41
2023-01-29T02:28:10.261Z,102974.63
2023-01-29T02:30:44.132Z,102982.50
2023-01-29T02:33:21.381Z,102982.50
2023-01-29T02:35:57.211Z,102986.13
2023-01-29T02:38:31.741Z,102979.97
2023-01-29T02:41:03.174Z,102982.63
2023-01-29T02:43:38.552Z,102969.44
2023-01-29T02:46:16.973Z,102980.22
2023-01-29T02:48:54.972Z,102973.91
2023-01-29T02:51:31.238Z,102971.38
2023-01-29T02:54:04.687Z,102976.72
2023-01-29T02:56:39.772Z,102967.03
2023-01-29T02:59:11.092Z,102968.84
2023-01-29T03:01:47.061Z,102967.16
2023-01-29T03:04:21.004Z,102961.97
2023-01-29T03:06:54.515Z,102962.69
2023-01-29T03:09:29.385Z,102955.81
2023-01-29T03:12:20.002Z,102969.94
2023-01-29T03:15:09.076Z,102968.25
2023-01-29T03:17:42.981Z,102961.13
2023-01-29T03:20:15.733Z,102971.91
2023-01-29T03:22:48.979Z,102962.94
2023-01-29T03:25:37.227Z,102956.78
2023-01-29T03:28:24.958Z,102955.22
2023-01-29T03:31:12.508Z,102963.19
2023-01-29T03:33:46.624Z,102957.03
2023-01-29T03:36:19.615Z,102950.72
2023-01-29T03:38:47.372Z,102949.91
2023-01-29T03:41:24.278Z,102941.19
2023-01-29T03:44:00.648Z,102956.31
2023-01-29T03:46:34.812Z,102955.47
2023-01-29T03:49:13.162Z,102949.31
2023-01-29T03:51:54.653Z,102958.97
2023-01-29T03:54:27.347Z,102953.78
2023-01-29T03:57:01.266Z,102944.13
2023-01-29T03:59:38.781Z,102935.28
2023-01-29T04:02:10.101Z,102943.41
2023-01-29T04:04:42.543Z,102936.25
2023-01-29T04:07:13.519Z,102942.41
2023-01-29T04:09:47.534Z,102944.25
2023-01-29T04:12:19.717Z,102942.41
2023-01-29T04:14:48.682Z,102936.38
2023-01-29T04:17:20.878Z,102936.25
2023-01-29T04:19:50.084Z,102919.44
2023-01-29T04:22:21.262Z,102918.59
2023-01-29T04:24:50.609Z,102925.59
2023-01-29T04:27:28.648Z,102922.94
2023-01-29T04:30:07.044Z,102917.63
2023-01-29T04:32:48.045Z,102916.78
2023-01-29T04:35:30.686Z,102919.31
2023-01-29T04:38:07.455Z,102917.50
2023-01-29T04:40:43.534Z,102912.56
2023-01-29T04:43:19.164Z,102911.31
2023-01-29T04:46:00.370Z,102908.66
2023-01-29T04:48:31.675Z,102901.66
2023-01-29T04:51:09.791Z,102903.34
2023-01-29T04:53:42.498Z,102890.88
2023-01-29T04:56:17.148Z,102892.81
2023-01-29T04:58:49.918Z,102884.84
2023-01-29T05:01:20.268Z,102889.31
2023-01-29T05:03:51.276Z,102878.81
2023-01-29T05:06:22.180Z,102880.38
2023-01-29T05:08:52.199Z,102874.31
2023-01-29T05:11:21.406Z,102871.53
2023-01-29T05:13:50.021Z,102865.50
2023-01-29T05:16:21.956Z,102871.66
2023-01-29T05:18:49.781Z,102855.13
2023-01-29T05:21:17.560Z,102852.19
2023-01-29T05:23:53.361Z,102864.66
2023-01-29T05:26:39.175Z,102866.47
2023-01-29T05:29:07.007Z,102870.81
2023-01-29T05:31:34.703Z,102856.66
2023-01-29T05:34:02.436Z,102851.34
2023-01-29T05:36:30.697Z,102853.16
2023-01-29T05:38:59.819Z,102844.34
2023-01-29T05:41:27.609Z,102844.34
2023-01-29T05:43:55.332Z,102846.16
2023-01-29T05:46:23.074Z,102848.81
2023-01-29T05:48:53.650Z,102847.84
2023-01-29T05:51:21.380Z,102854.16
2023-01-29T05:53:49.121Z,102864.66
2023-01-29T05:56:18.236Z,102859.34
2023-01-29T05:58:45.980Z,102862.84
2023-01-29T06:01:16.188Z,102875.16
2023-01-29T06:03:44.248Z,102876.72
2023-01-29T06:06:12.268Z,102870.50
2023-01-29T06:08:40.262Z,102879.09
2023-01-29T06:11:10.422Z,102877.91
2023-01-29T06:13:39.807Z,102877.16
2023-01-29T06:16:08.545Z,102872.16
2023-01-29T06:18:36.913Z,102871.50
2023-01-29T06:21:05.955Z,102858.31
2023-01-29T06:23:34.185Z,102857.22
2023-01-29T06:26:02.161Z,102873.50
2023-01-29T06:28:30.258Z,102892.75
2023-01-29T06:31:11.447Z,102880.53
2023-01-29T06:33:44.127Z,102889.00
2023-01-29T06:36:12.061Z,102878.44
2023-01-29T06:38:39.731Z,102863.84
2023-01-29T06:41:13.525Z,102852.19
2023-01-29T06:43:41.231Z,102832.22
2023-01-29T06:46:10.269Z,102836.59
2023-01-29T06:48:38.138Z,102834.91
2023-01-29T06:51:07.912Z,102854.25
2023-01-29T06:53:36.914Z,102849.91
2023-01-29T06:56:05.356Z,102846.53
2023-01-29T06:58:33.254Z,102840.06
2023-01-29T07:01:04.937Z,102842.28
2023-01-29T07:03:34.336Z,102836.53
2023-01-29T07:06:02.443Z,102827.97
2023-01-29T07:08:30.126Z,102832.84
2023-01-29T07:11:00.895Z,102827.78
2023-01-29T07:13:28.899Z,102825.81
2023-01-29T07:15:59.591Z,102816.78
2023-01-29T07:18:27.443Z,102840.22
2023-01-29T07:20:57.162Z,102830.69
2023-01-29T07:23:25.413Z,102831.94
2023-01-29T07:25:53.149Z,102838.25
2023-01-29T07:28:21.451Z,102834.28
2023-01-29T07:30:49.334Z,102839.47
2023-01-29T07:33:17.063Z,102843.88
2023-01-29T07:35:44.805Z,102841.81
2023-01-29T07:38:13.899Z,102838.50
2023-01-29T07:40:41.640Z,102849.34
2023-01-29T07:43:10.833Z,102834.59
2023-01-29T07:45:40.401Z,102830.13
2023-01-29T07:48:10.929Z,102831.53
2023-01-29T07:50:39.267Z,102825.34
2023-01-29T07:53:07.090Z,102820.44
2023-01-29T07:55:36.305Z,102820.00
2023-01-29T07:58:05.042Z,102829.66
2023-01-29T08:00:33.345Z,102833.44
2023-01-29T08:03:04.797Z,102831.47
2023-01-29T08:05:32.808Z,102825.84
2023-01-29T08:08:06.892Z,102821.19
2023-01-29T08:10:36.795Z,102826.41
2023-01-29T08:13:05.543Z,102835.03
2023-01-29T08:15:33.948Z,102818.91
2023-01-29T08:18:02.560Z,102815.38
2023-01-29T08:20:30.550Z,102824.94
2023-01-29T08:23:02.149Z,102816.25
2023-01-29T08:25:30.576Z,102811.88
2023-01-29T08:28:01.177Z,102828.00
2023-01-29T08:30:30.535Z,102826.59
2023-01-29T08:32:58.453Z,102837.72
2023-01-29T08:35:26.636Z,102827.59
2023-01-29T08:37:55.639Z,102823.66
2023-01-29T08:40:23.470Z,102815.09
2023-01-29T08:42:51.210Z,102812.00
2023-01-29T08:45:20.335Z,102817.59
2023-01-29T08:47:48.981Z,102816.88
2023-01-29T08:50:17.657Z,102818.00
2023-01-29T08:52:46.192Z,102806.66
2023-01-29T08:55:14.996Z,102795.28
2023-01-29T08:57:42.887Z,102799.78
2023-01-29T09:00:13.126Z,102797.38
2023-01-29T09:02:42.240Z,102801.88
2023-01-29T09:05:10.709Z,102796.81
2023-01-29T09:07:38.470Z,102801.28
2023-01-29T09:10:07.110Z,102809.41
2023-01-29T09:12:34.888Z,102815.72
2023-01-29T09:15:02.644Z,102804.34
2023-01-29T09:17:30.360Z,102802.69
2023-01-29T09:19:59.410Z,102797.50
2023-01-29T09:22:27.192Z,102786.31
2023-01-29T09:24:54.930Z,102791.25
2023-01-29T09:27:22.648Z,102783.28
2023-01-29T09:29:50.389Z,102784.94
2023-01-29T09:32:37.641Z,102787.75
2023-01-29T09:35:08.070Z,102785.06
2023-01-29T09:37:36.026Z,102780.72
2023-01-29T09:40:03.812Z,102773.28
2023-01-29T09:42:39.305Z,102783.13
2023-01-29T09:45:13.838Z,102775.41
2023-01-29T09:47:41.815Z,102777.22
2023-01-29T09:50:19.990Z,102779.59
2023-01-29T09:52:53.775Z,102776.69
2023-01-29T09:55:26.063Z,102771.63
2023-01-29T09:57:57.071Z,102768.41
2023-01-29T10:00:29.536Z,102773.16
2023-01-29T10:03:18.996Z,102777.94
2023-01-29T10:06:04.941Z,102777.22
2023-01-29T10:08:56.832Z,102785.50
2023-01-29T10:11:34.184Z,102777.06
2023-01-29T10:14:13.091Z,102790.53
2023-01-29T10:16:52.884Z,102788.13
2023-01-29T10:19:42.126Z,102792.75
2023-01-29T10:22:31.805Z,102791.22
2023-01-29T10:25:03.440Z,102792.06
2023-01-29T10:27:35.052Z,102786.84
2023-01-29T10:30:09.500Z,102789.38
2023-01-29T10:32:38.571Z,102781.81
2023-01-29T10:35:21.440Z,102777.19
2023-01-29T10:37:54.237Z,102779.84
2023-01-29T10:40:24.925Z,102768.47
2023-01-29T10:43:01.487Z,102778.03
2023-01-29T10:45:38.276Z,102772.56
2023-01-29T10:48:45.575Z,102769.78
2023-01-29T10:51:26.843Z,102768.25
2023-01-29T10:54:10.572Z,102757.84
2023-01-29T10:56:55.653Z,102755.34
2023-01-29T10:59:40.480Z,102756.44
2023-01-29T11:02:17.821Z,102748.69
2023-01-29T11:04:46.159Z,102749.81
2023-01-29T11:07:16.114Z,102755.03
2023-01-29T11:09:49.938Z,102742.97
2023-01-29T11:12:21.728Z,102742.97
2023-01-29T11:14:54.752Z,102737.78
2023-01-29T11:17:24.962Z,102728.69
2023-01-29T11:19:55.628Z,102722.22
2023-01-29T11:22:24.567Z,102720.16
2023-01-29T11:25:10.902Z,102717.91
2023-01-29T11:27:45.090Z,102717.63
2023-01-29T11:30:20.742Z,102708.66
2023-01-29T11:32:52.849Z,102700.09
2023-01-29T11:35:26.583Z,102691.41
2023-01-29T11:37:54.296Z,102687.06
2023-01-29T11:40:38.871Z,102683.69
2023-01-29T11:43:18.841Z,102673.16
2023-01-29T11:45:47.671Z,102663.50
2023-01-29T11:48:17.814Z,102658.03
2023-01-29T11:50:53.008Z,102652.69
2023-01-29T11:53:32.720Z,102651.72
2023-01-29T11:56:04.041Z,102644.69
2023-01-29T11:58:35.716Z,102641.34
2023-01-29T12:01:04.763Z,102638.53
2023-01-29T12:03:36.988Z,102622.69
2023-01-29T12:06:08.184Z,102622.69
2023-01-29T12:08:39.102Z,102609.38
2023-01-29T12:11:13.723Z,102609.38
2023-01-29T12:13:43.746Z,102595.75
2023-01-29T12:16:20.202Z,102587.97
2023-01-29T12:18:52.496Z,102579.75
2023-01-29T12:21:27.097Z,102567.47
2023-01-29T12:24:02.469Z,102569.34
2023-01-29T12:26:35.250Z,102563.88
2023-01-29T12:29:19.148Z,102556.84
2023-01-29T12:31:54.637Z,102555.91
2023-01-29T12:34:31.942Z,102555.28
2023-01-29T12:37:04.284Z,102548.00
2023-01-29T12:39:32.543Z,102549.44
2023-01-29T12:42:06.250Z,102548.19
2023-01-29T12:44:42.097Z,102545.28
2023-01-29T12:47:17.178Z,102543.75
2023-01-29T12:49:50.965Z,102538.84
2023-01-29T12:52:23.780Z,102538.69
2023-01-29T12:54:56.389Z,102534.66
2023-01-29T12:57:36.074Z,102536.75
2023-01-29T13:00:08.850Z,102531.56
2023-01-29T13:02:41.023Z,102528.25
2023-01-29T13:05:20.624Z,102528.41
2023-01-29T13:07:52.534Z,102529.53
2023-01-29T13:10:24.208Z,102526.31
2023-01-29T13:13:00.867Z,102520.84
2023-01-29T13:15:34.241Z,102512.97
2023-01-29T13:18:21.639Z,102509.47
2023-01-29T13:20:50.792Z,102502.94
2023-01-29T13:23:22.768Z,102503.84
2023-01-29T13:25:54.691Z,102504.44
2023-01-29T13:28:26.602Z,102500.13
2023-01-29T13:31:19.150Z,102493.03
2023-01-29T13:33:55.133Z,102495.41
2023-01-29T13:36:27.412Z,102481.28
2023-01-29T13:39:01.250Z,102475.69
2023-01-29T13:41:41.577Z,102475.75
2023-01-29T13:44:22.076Z,102471.47
2023-01-29T13:46:52.742Z,102466.88
2023-01-29T13:49:28.747Z,102462.81
2023-01-29T13:51:56.735Z,102458.78
2023-01-29T13:54:27.277Z,102463.56
2023-01-29T13:57:00.506Z,102454.63
2023-01-29T13:59:53.211Z,102462.47
2023-01-29T14:02:25.968Z,102452.25
2023-01-29T14:05:32.113Z,102457.75
2023-01-29T14:08:01.193Z,102462.38
2023-01-29T14:10:30.557Z,102459.72
2023-01-29T14:13:28.032Z,102454.69
2023-01-29T14:16:43.794Z,102456.66
2023-01-29T14:19:20.408Z,102449.66
2023-01-29T14:21:51.592Z,102445.28
2023-01-29T14:24:22.208Z,102438.44
2023-01-29T14:26:54.943Z,102436.78
2023-01-29T14:29:34.148Z,102424.19
2023-01-29T14:32:13.178Z,102439.53
2023-01-29T14:34:47.604Z,102431.88
2023-01-29T14:37:23.001Z,102436.41
2023-01-29T14:39:52.714Z,102431.78
2023-01-29T14:42:25.493Z,102427.84
2023-01-29T14:45:08.251Z,102422.94
2023-01-29T14:48:21.080Z,102422.03
2023-01-29T14:50:53.997Z,102426.84
2023-01-29T14:53:28.663Z,102419.91
2023-01-29T14:56:00.725Z,102429.97
2023-01-29T14:58:39.635Z,102427.91
2023-01-29T15:01:16.683Z,102425.44
2023-01-29T15:03:45.609Z,102426.03
2023-01-29T15:06:21.111Z,102423.16
2023-01-29T15:08:56.536Z,102420.78
2023-01-29T15:11:36.608Z,102407.75
2023-01-29T15:14:15.617Z,102408.06
2023-01-29T15:16:53.060Z,102399.34
2023-01-29T15:19:27.219Z,102402.03
2023-01-29T15:22:14.737Z,102401.34
2023-01-29T15:24:43.283Z,102400.50
2023-01-29T15:27:16.913Z,102403.78
2023-01-29T15:29:48.897Z,102394.56
2023-01-29T15:32:31.146Z,102386.28
2023-01-29T15:35:00.403Z,102395.63
2023-01-29T15:37:32.516Z,102391.25
2023-01-29T15:40:04.212Z,102383.66
2023-01-29T15:42:44.653Z,102382.78
2023-01-29T15:45:28.399Z,102389.19
2023-01-29T15:48:01.105Z,102374.53
2023-01-29T15:50:30.288Z,102377.75
2023-01-29T15:53:03.700Z,102371.59
2023-01-29T15:55:32.727Z,102364.59
2023-01-29T15:58:01.330Z,102362.91
2023-01-29T16:00:30.636Z,102356.41
2023-01-29T16:03:00.668Z,102343.88
2023-01-29T16:05:30.563Z,102345.19
2023-01-29T16:08:01.174Z,102339.13
2023-01-29T16:10:31.916Z,102341.41
2023-01-29T16:13:00.223Z,102339.81
2023-01-29T16:15:34.512Z,102333.25
2023-01-29T16:18:05.415Z,102337.19
2023-01-29T16:20:37.410Z,102345.28
2023-01-29T16:23:08.050Z,102333.88
2023-01-29T16:25:39.811Z,102332.66
2023-01-29T16:28:11.025Z,102333.81
2023-01-29T16:30:39.979Z,102334.28
2023-01-29T16:33:13.003Z,102335.75
2023-01-29T16:35:41.482Z,102328.34
2023-01-29T16:38:25.094Z,102318.78
2023-01-29T16:41:07.197Z,102311.09
2023-01-29T16:43:50.207Z,102303.25
2023-01-29T16:46:22.435Z,102299.53
2023-01-29T16:48:50.162Z,102315.38
2023-01-29T16:51:24.633Z,102317.53
2023-01-29T16:54:09.112Z,102319.50
2023-01-29T16:56:39.116Z,102318.66
2023-01-29T16:59:07.868Z,102315.31
2023-01-29T17:01:37.445Z,102318.97
2023-01-29T17:04:09.991Z,102321.50
2023-01-29T17:06:38.981Z,102310.13
2023-01-29T17:09:08.270Z,102305.09
2023-01-29T17:11:39.228Z,102307.78
2023-01-29T17:14:08.654Z,102297.94
2023-01-29T17:16:47.547Z,102296.41
2023-01-29T17:19:20.872Z,102280.56
2023-01-29T17:21:48.789Z,102289.94
2023-01-29T17:24:17.916Z,102296.41
2023-01-29T17:26:45.873Z,102289.16
2023-01-29T17:29:16.507Z,102298.59
2023-01-29T17:31:44.499Z,102295.25
2023-01-29T17:34:14.367Z,102284.00
2023-01-29T17:36:42.143Z,102289.47
2023-01-29T17:39:19.183Z,102283.06
2023-01-29T17:41:48.241Z,102273.25
2023-01-29T17:44:16.263Z,102275.41
2023-01-29T17:46:44.083Z,102282.38
2023-01-29T17:49:21.642Z,102267.31
2023-01-29T17:51:50.408Z,102264.09
2023-01-29T17:54:19.953Z,102267.03
2023-01-29T17:56:47.848Z,102262.31
2023-01-29T17:59:16.521Z,102268.13
2023-01-29T18:01:45.083Z,102261.75
2023-01-29T18:04:13.521Z,102267.09
2023-01-29T18:06:43.049Z,102258.88
2023-01-29T18:09:14.212Z,102262.06
2023-01-29T18:11:44.304Z,102265.56
2023-01-29T18:14:13.918Z,102256.41
2023-01-29T18:16:43.140Z,102255.25
2023-01-29T18:19:15.491Z,102252.75
2023-01-29T18:21:43.266Z,102255.91
2023-01-29T18:24:11.151Z,102259.72
2023-01-29T18:26:39.507Z,102256.53
2023-01-29T18:29:09.328Z,102252.03
2023-01-29T18:31:37.120Z,102242.34
2023-01-29T18:34:04.889Z,102249.81
2023-01-29T18:36:32.608Z,102245.31
2023-01-29T18:39:00.368Z,102244.66
2023-01-29T18:41:28.110Z,102247.47
2023-01-29T18:43:55.893Z,102232.88
2023-01-29T18:46:25.141Z,102230.28
2023-01-29T18:48:52.931Z,102219.66
2023-01-29T18:51:20.736Z,102224.78
2023-01-29T18:53:51.593Z,102215.31
2023-01-29T18:56:19.803Z,102205.31
2023-01-29T18:58:52.453Z,102197.31
2023-01-29T19:01:27.177Z,102194.28
2023-01-29T19:03:56.063Z,102184.78
2023-01-29T19:06:23.800Z,102181.75
2023-01-29T19:08:51.716Z,102175.03
2023-01-29T19:11:19.523Z,102180.53
2023-01-29T19:13:48.030Z,102183.19
2023-01-29T19:16:15.789Z,102192.84
2023-01-29T19:18:44.871Z,102189.28
2023-01-29T19:21:14.498Z,102181.75
2023-01-29T19:23:43.083Z,102182.91
2023-01-29T19:26:11.504Z,102179.75
2023-01-29T19:28:39.362Z,102164.19
2023-01-29T19:31:07.223Z,102152.00
2023-01-29T19:33:34.976Z,102152.34
2023-01-29T19:36:04.167Z,102149.97
2023-01-29T19:38:33.576Z,102130.78
2023-01-29T19:41:01.328Z,102123.78
2023-01-29T19:43:30.411Z,102121.09
2023-01-29T19:45:59.606Z,102123.09
2023-01-29T19:48:27.674Z,102122.44
2023-01-29T19:50:57.083Z,102108.56
2023-01-29T19:53:28.185Z,102095.91
2023-01-29T19:55:59.903Z,102082.88
2023-01-29T19:58:28.343Z,102088.22
2023-01-29T20:00:59.340Z,102088.38
2023-01-29T20:03:28.883Z,102086.69
2023-01-29T20:05:57.277Z,102083.34
2023-01-29T20:08:26.338Z,102077.84
2023-01-29T20:10:54.109Z,102065.66
2023-01-29T20:13:21.953Z,102066.66
2023-01-29T20:15:51.755Z,102062.16
2023-01-29T20:18:19.988Z,102073.81
2023-01-29T20:20:49.495Z,102073.00
2023-01-29T20:23:31.833Z,102086.31
2023-01-29T20:26:06.481Z,102105.00
2023-01-29T20:28:34.554Z,102094.50
2023-01-29T20:31:02.354Z,102088.16
2023-01-29T20:33:30.203Z,102091.66
2023-01-29T20:35:59.681Z,102087.31
2023-01-29T20:38:30.533Z,102088.47
2023-01-29T20:41:05.563Z,102083.97
2023-01-29T20:43:33.569Z,102082.47
2023-01-29T20:46:02.308Z,102097.31
2023-01-29T20:48:30.845Z,102107.00
2023-01-29T20:51:03.765Z,102090.81
2023-01-29T20:53:31.529Z,102081.66
2023-01-29T20:55:59.238Z,102070.31
2023-01-29T20:58:28.572Z,102072.81
2023-01-29T21:00:56.310Z,102063.16
2023-01-29T21:03:24.095Z,102066.66
2023-01-29T21:05:52.311Z,102073.81
2023-01-29T21:08:20.126Z,102073.00
2023-01-29T21:10:50.532Z,102078.31
2023-01-29T21:13:18.284Z,102067.66
2023-01-29T21:15:47.367Z,102064.97
2023-01-29T21:18:15.048Z,102055.16
2023-01-29T21:20:42.802Z,102057.16
2023-01-29T21:23:10.660Z,102081.16
2023-01-29T21:25:39.579Z,102082.16
2023-01-29T21:28:07.344Z,102067.63
2023-01-29T21:30:35.611Z,102063.47
2023-01-29T21:33:05.181Z,102084.81
2023-01-29T21:35:33.352Z,102083.97
2023-01-29T21:38:01.071Z,102070.81
2023-01-29T21:40:30.518Z,102059.13
2023-01-29T21:43:13.577Z,102054.63
2023-01-29T21:45:41.794Z,102063.63
2023-01-29T21:48:12.015Z,102050.13
2023-01-29T21:50:39.987Z,102050.97
2023-01-29T21:53:07.884Z,102054.47
2023-01-29T21:55:35.649Z,102052.66
2023-01-29T21:58:04.360Z,102044.81
2023-01-29T22:00:32.128Z,102057.31
2023-01-29T22:02:59.981Z,102067.13
2023-01-29T22:05:30.127Z,102067.97
2023-01-29T22:07:57.958Z,102078.66
2023-01-29T22:10:25.853Z,102081.31
2023-01-29T22:12:53.865Z,102053.81
2023-01-29T22:15:23.619Z,102029.13
2023-01-29T22:17:52.009Z,102022.78
2023-01-29T22:20:20.549Z,102003.28
2023-01-29T22:22:49.711Z,102001.28
2023-01-29T22:25:20.105Z,102006.47
2023-01-29T22:27:47.873Z,102001.13
2023-01-29T22:30:16.143Z,101985.13
2023-01-29T22:32:44.155Z,101947.78
2023-01-29T22:35:11.883Z,101935.44
2023-01-29T22:37:39.573Z,101926.59
2023-01-29T22:40:10.415Z,101900.09
2023-01-29T22:42:38.126Z,101915.75
2023-01-29T22:45:06.617Z,101920.09
2023-01-29T22:47:34.522Z,101953.09
2023-01-29T22:50:02.267Z,101954.94
2023-01-29T22:52:38.217Z,101968.28
2023-01-29T22:55:10.087Z,101956.94
2023-01-29T22:57:38.249Z,101941.59
2023-01-29T23:00:08.786Z,101941.75
2023-01-29T23:02:36.585Z,101931.75
2023-01-29T23:05:04.800Z,101949.59
2023-01-29T23:07:32.586Z,101946.09
2023-01-29T23:10:00.276Z,101932.59
2023-01-29T23:12:29.340Z,101943.28
2023-01-29T23:14:57.110Z,101935.09
2023-01-29T23:17:25.011Z,101917.25
2023-01-29T23:19:52.767Z,101907.59
2023-01-29T23:22:20.467Z,101872.75
2023-01-29T23:24:48.192Z,101866.56
2023-01-29T23:27:15.149Z,101879.91
2023-01-29T23:29:45.149Z,101886.25
2023-01-29T23:32:17.521Z,101911.75
2023-01-29T23:34:45.264Z,101900.94
2023-01-29T23:37:13.151Z,101900.25
2023-01-29T23:39:40.827Z,101894.59
2023-01-29T23:42:08.517Z,101889.25
2023-01-29T23:44:36.665Z,101885.63
2023-01-29T23:47:05.871Z,101879.44
2023-01-29T23:49:33.614Z,101877.63
2023-01-29T23:52:01.486Z,101869.44
2023-01-29T23:54:29.207Z,101863.28
2023-01-29T23:56:56.996Z,101864.28
2023-01-29T23:59:28.014Z,101855.28
